sensor_id;sensor_type;location;lat;lon;timestamp;P1;durP1;ratioP1;P2;durP2;ratioP2
65831;SDS011;52593;42.648;23.332;2023-01-05T00:00:59;29.90;;;11.77;;
65831;SDS011;52593;42.648;23.332;2023-01-05T00:03:29;32.40;;;11.70;;
65831;SDS011;52593;42.648;23.332;2023-01-05T00:05:59;32.80;;;12.17;;
65831;SDS011;52593;42.648;23.332;2023-01-05T00:08:29;32.28;;;12.80;;
65831;SDS011;52593;42.648;23.332;2023-01-05T00:10:54;36.17;;;13.23;;
65831;SDS011;52593;42.648;23.332;2023-01-05T00:13:38;32.50;;;12.93;;
65831;SDS011;52593;42.648;23.332;2023-01-05T00:16:22;31.00;;;12.52;;
65831;SDS011;52593;42.648;23.332;2023-01-05T00:19:08;34.58;;;13.68;;
65831;SDS011;52593;42.648;23.332;2023-01-05T00:21:54;33.60;;;12.73;;
65831;SDS011;52593;42.648;23.332;2023-01-05T00:24:38;32.38;;;12.52;;
65831;SDS011;52593;42.648;23.332;2023-01-05T00:27:03;33.50;;;12.37;;
65831;SDS011;52593;42.648;23.332;2023-01-05T00:29:29;32.70;;;12.97;;
65831;SDS011;52593;42.648;23.332;2023-01-05T00:31:54;36.13;;;13.20;;
65831;SDS011;52593;42.648;23.332;2023-01-05T00:34:19;32.27;;;12.23;;
65831;SDS011;52593;42.648;23.332;2023-01-05T00:36:45;31.23;;;12.93;;
65831;SDS011;52593;42.648;23.332;2023-01-05T00:39:10;32.67;;;13.37;;
65831;SDS011;52593;42.648;23.332;2023-01-05T00:41:35;31.27;;;12.43;;
65831;SDS011;52593;42.648;23.332;2023-01-05T00:44:01;35.50;;;12.87;;
65831;SDS011;52593;42.648;23.332;2023-01-05T00:46:26;32.17;;;12.93;;
65831;SDS011;52593;42.648;23.332;2023-01-05T00:48:52;34.80;;;12.97;;
65831;SDS011;52593;42.648;23.332;2023-01-05T00:51:17;34.23;;;14.23;;
65831;SDS011;52593;42.648;23.332;2023-01-05T00:53:42;36.37;;;13.23;;
65831;SDS011;52593;42.648;23.332;2023-01-05T00:56:08;32.70;;;13.33;;
65831;SDS011;52593;42.648;23.332;2023-01-05T00:58:33;36.63;;;13.53;;
65831;SDS011;52593;42.648;23.332;2023-01-05T01:00:58;33.43;;;13.60;;
65831;SDS011;52593;42.648;23.332;2023-01-05T01:03:24;33.03;;;12.90;;
65831;SDS011;52593;42.648;23.332;2023-01-05T01:05:56;33.93;;;12.30;;
65831;SDS011;52593;42.648;23.332;2023-01-05T01:08:22;35.00;;;13.00;;
65831;SDS011;52593;42.648;23.332;2023-01-05T01:10:47;35.43;;;13.20;;
65831;SDS011;52593;42.648;23.332;2023-01-05T01:13:13;34.33;;;13.10;;
65831;SDS011;52593;42.648;23.332;2023-01-05T01:15:38;33.50;;;13.07;;
65831;SDS011;52593;42.648;23.332;2023-01-05T01:18:04;36.90;;;13.77;;
65831;SDS011;52593;42.648;23.332;2023-01-05T01:20:29;33.60;;;13.40;;
65831;SDS011;52593;42.648;23.332;2023-01-05T01:22:54;32.73;;;12.47;;
65831;SDS011;52593;42.648;23.332;2023-01-05T01:25:20;34.15;;;13.98;;
65831;SDS011;52593;42.648;23.332;2023-01-05T01:27:46;36.45;;;13.65;;
65831;SDS011;52593;42.648;23.332;2023-01-05T01:30:11;31.97;;;12.10;;
65831;SDS011;52593;42.648;23.332;2023-01-05T01:32:37;32.30;;;12.00;;
65831;SDS011;52593;42.648;23.332;2023-01-05T01:35:02;30.40;;;12.80;;
65831;SDS011;52593;42.648;23.332;2023-01-05T01:37:28;32.13;;;13.23;;
65831;SDS011;52593;42.648;23.332;2023-01-05T01:39:53;31.90;;;12.27;;
65831;SDS011;52593;42.648;23.332;2023-01-05T01:42:19;32.17;;;12.17;;
65831;SDS011;52593;42.648;23.332;2023-01-05T01:47:13;34.63;;;12.67;;
65831;SDS011;52593;42.648;23.332;2023-01-05T01:49:41;32.33;;;12.75;;
65831;SDS011;52593;42.648;23.332;2023-01-05T01:52:06;33.03;;;12.50;;
65831;SDS011;52593;42.648;23.332;2023-01-05T01:54:33;31.58;;;11.57;;
65831;SDS011;52593;42.648;23.332;2023-01-05T01:56:59;30.13;;;12.30;;
65831;SDS011;52593;42.648;23.332;2023-01-05T01:59:24;31.10;;;12.70;;
65831;SDS011;52593;42.648;23.332;2023-01-05T02:01:51;36.30;;;12.95;;
65831;SDS011;52593;42.648;23.332;2023-01-05T02:04:20;36.67;;;13.77;;
65831;SDS011;52593;42.648;23.332;2023-01-05T02:06:48;32.67;;;12.32;;
65831;SDS011;52593;42.648;23.332;2023-01-05T02:09:14;33.27;;;12.60;;
65831;SDS011;52593;42.648;23.332;2023-01-05T02:27:36;29.63;;;9.97;;
65831;SDS011;52593;42.648;23.332;2023-01-05T02:32:31;26.40;;;10.80;;
65831;SDS011;52593;42.648;23.332;2023-01-05T02:35:12;26.17;;;10.85;;
65831;SDS011;52593;42.648;23.332;2023-01-05T02:40:32;28.48;;;10.82;;
65831;SDS011;52593;42.648;23.332;2023-01-05T02:43:03;28.17;;;9.85;;
65831;SDS011;52593;42.648;23.332;2023-01-05T02:45:30;27.00;;;10.27;;
65831;SDS011;52593;42.648;23.332;2023-01-05T02:47:56;29.15;;;10.75;;
65831;SDS011;52593;42.648;23.332;2023-01-05T02:50:22;26.03;;;9.33;;
65831;SDS011;52593;42.648;23.332;2023-01-05T02:55:33;27.92;;;11.02;;
65831;SDS011;52593;42.648;23.332;2023-01-05T02:58:06;25.20;;;10.00;;
65831;SDS011;52593;42.648;23.332;2023-01-05T03:00:44;25.98;;;10.05;;
65831;SDS011;52593;42.648;23.332;2023-01-05T03:03:17;29.33;;;11.07;;
65831;SDS011;52593;42.648;23.332;2023-01-05T03:05:51;26.35;;;9.95;;
65831;SDS011;52593;42.648;23.332;2023-01-05T03:08:22;25.77;;;10.70;;
65831;SDS011;52593;42.648;23.332;2023-01-05T03:11:10;25.33;;;10.00;;
65831;SDS011;52593;42.648;23.332;2023-01-05T03:14:15;24.67;;;10.63;;
65831;SDS011;52593;42.648;23.332;2023-01-05T03:16:48;29.83;;;10.40;;
65831;SDS011;52593;42.648;23.332;2023-01-05T03:19:15;26.52;;;10.18;;
65831;SDS011;52593;42.648;23.332;2023-01-05T03:22:03;27.70;;;10.80;;
65831;SDS011;52593;42.648;23.332;2023-01-05T03:24:51;29.70;;;11.33;;
65831;SDS011;52593;42.648;23.332;2023-01-05T03:27:35;32.30;;;11.38;;
65831;SDS011;52593;42.648;23.332;2023-01-05T03:30:20;33.20;;;12.32;;
65831;SDS011;52593;42.648;23.332;2023-01-05T03:33:13;32.22;;;12.38;;
65831;SDS011;52593;42.648;23.332;2023-01-05T03:36:06;28.65;;;10.80;;
65831;SDS011;52593;42.648;23.332;2023-01-05T03:38:40;30.77;;;11.37;;
65831;SDS011;52593;42.648;23.332;2023-01-05T03:41:09;32.45;;;12.10;;
65831;SDS011;52593;42.648;23.332;2023-01-05T03:43:37;32.58;;;12.85;;
65831;SDS011;52593;42.648;23.332;2023-01-05T03:46:11;30.63;;;11.07;;
65831;SDS011;52593;42.648;23.332;2023-01-05T03:48:40;30.92;;;11.63;;
65831;SDS011;52593;42.648;23.332;2023-01-05T03:51:06;29.97;;;11.20;;
65831;SDS011;52593;42.648;23.332;2023-01-05T03:53:31;30.23;;;10.63;;
65831;SDS011;52593;42.648;23.332;2023-01-05T03:55:57;32.23;;;12.87;;
65831;SDS011;52593;42.648;23.332;2023-01-05T03:58:22;29.57;;;11.87;;
65831;SDS011;52593;42.648;23.332;2023-01-05T04:00:48;38.13;;;13.40;;
65831;SDS011;52593;42.648;23.332;2023-01-05T04:03:13;41.27;;;15.47;;
65831;SDS011;52593;42.648;23.332;2023-01-05T04:05:38;37.37;;;14.60;;
65831;SDS011;52593;42.648;23.332;2023-01-05T04:08:04;33.67;;;14.00;;
65831;SDS011;52593;42.648;23.332;2023-01-05T04:10:30;36.35;;;13.15;;
65831;SDS011;52593;42.648;23.332;2023-01-05T04:12:55;31.30;;;11.83;;
65831;SDS011;52593;42.648;23.332;2023-01-05T04:15:21;32.50;;;12.23;;
65831;SDS011;52593;42.648;23.332;2023-01-05T04:17:47;30.90;;;11.65;;
65831;SDS011;52593;42.648;23.332;2023-01-05T04:20:12;28.47;;;11.20;;
65831;SDS011;52593;42.648;23.332;2023-01-05T04:22:38;27.57;;;10.87;;
65831;SDS011;52593;42.648;23.332;2023-01-05T04:25:03;30.27;;;12.02;;
65831;SDS011;52593;42.648;23.332;2023-01-05T04:27:29;28.43;;;10.93;;
65831;SDS011;52593;42.648;23.332;2023-01-05T04:29:54;28.30;;;11.93;;
65831;SDS011;52593;42.648;23.332;2023-01-05T04:32:20;29.98;;;11.85;;
65831;SDS011;52593;42.648;23.332;2023-01-05T04:34:45;28.27;;;10.37;;
65831;SDS011;52593;42.648;23.332;2023-01-05T04:37:10;28.60;;;11.20;;
65831;SDS011;52593;42.648;23.332;2023-01-05T04:39:36;32.93;;;11.60;;
65831;SDS011;52593;42.648;23.332;2023-01-05T04:42:01;29.43;;;11.37;;
65831;SDS011;52593;42.648;23.332;2023-01-05T04:44:26;29.10;;;10.80;;
65831;SDS011;52593;42.648;23.332;2023-01-05T04:46:52;32.47;;;12.07;;
65831;SDS011;52593;42.648;23.332;2023-01-05T04:49:17;29.83;;;10.70;;
65831;SDS011;52593;42.648;23.332;2023-01-05T04:51:43;28.13;;;10.87;;
65831;SDS011;52593;42.648;23.332;2023-01-05T04:54:08;31.03;;;11.20;;
65831;SDS011;52593;42.648;23.332;2023-01-05T04:56:33;28.53;;;10.50;;
65831;SDS011;52593;42.648;23.332;2023-01-05T04:58:59;31.03;;;11.20;;
65831;SDS011;52593;42.648;23.332;2023-01-05T05:01:24;32.20;;;11.40;;
65831;SDS011;52593;42.648;23.332;2023-01-05T05:03:50;30.27;;;11.50;;
65831;SDS011;52593;42.648;23.332;2023-01-05T05:06:16;28.60;;;11.30;;
65831;SDS011;52593;42.648;23.332;2023-01-05T05:08:41;30.37;;;11.17;;
65831;SDS011;52593;42.648;23.332;2023-01-05T05:11:07;35.80;;;12.37;;
65831;SDS011;52593;42.648;23.332;2023-01-05T05:13:32;28.03;;;11.47;;
65831;SDS011;52593;42.648;23.332;2023-01-05T05:15:57;27.75;;;10.35;;
65831;SDS011;52593;42.648;23.332;2023-01-05T05:18:23;31.47;;;11.07;;
65831;SDS011;52593;42.648;23.332;2023-01-05T05:20:49;29.30;;;10.70;;
65831;SDS011;52593;42.648;23.332;2023-01-05T05:23:16;31.10;;;11.60;;
65831;SDS011;52593;42.648;23.332;2023-01-05T05:25:41;29.47;;;11.43;;
65831;SDS011;52593;42.648;23.332;2023-01-05T05:28:07;35.25;;;12.70;;
65831;SDS011;52593;42.648;23.332;2023-01-05T05:30:32;31.10;;;11.90;;
65831;SDS011;52593;42.648;23.332;2023-01-05T05:32:58;33.77;;;11.63;;
65831;SDS011;52593;42.648;23.332;2023-01-05T05:35:23;34.47;;;12.73;;
65831;SDS011;52593;42.648;23.332;2023-01-05T05:37:49;31.83;;;12.48;;
65831;SDS011;52593;42.648;23.332;2023-01-05T05:40:14;32.20;;;12.00;;
65831;SDS011;52593;42.648;23.332;2023-01-05T05:42:39;30.90;;;11.90;;
65831;SDS011;52593;42.648;23.332;2023-01-05T05:45:05;32.47;;;12.27;;
65831;SDS011;52593;42.648;23.332;2023-01-05T05:47:31;32.67;;;12.15;;
65831;SDS011;52593;42.648;23.332;2023-01-05T05:49:56;33.70;;;13.17;;
65831;SDS011;52593;42.648;23.332;2023-01-05T05:52:22;34.70;;;11.88;;
65831;SDS011;52593;42.648;23.332;2023-01-05T05:54:47;27.93;;;11.53;;
65831;SDS011;52593;42.648;23.332;2023-01-05T05:57:12;32.13;;;11.57;;
65831;SDS011;52593;42.648;23.332;2023-01-05T05:59:38;33.43;;;12.40;;
65831;SDS011;52593;42.648;23.332;2023-01-05T06:02:03;33.07;;;11.17;;
65831;SDS011;52593;42.648;23.332;2023-01-05T06:04:29;34.33;;;11.85;;
65831;SDS011;52593;42.648;23.332;2023-01-05T06:06:54;36.57;;;13.00;;
65831;SDS011;52593;42.648;23.332;2023-01-05T06:09:19;39.23;;;12.40;;
65831;SDS011;52593;42.648;23.332;2023-01-05T06:11:45;31.47;;;11.47;;
65831;SDS011;52593;42.648;23.332;2023-01-05T06:14:10;35.60;;;13.03;;
65831;SDS011;52593;42.648;23.332;2023-01-05T06:16:36;36.20;;;12.27;;
65831;SDS011;52593;42.648;23.332;2023-01-05T06:19:01;34.17;;;11.87;;
65831;SDS011;52593;42.648;23.332;2023-01-05T06:21:26;37.30;;;12.57;;
65831;SDS011;52593;42.648;23.332;2023-01-05T06:23:52;35.20;;;12.83;;
65831;SDS011;52593;42.648;23.332;2023-01-05T06:26:17;37.60;;;12.87;;
65831;SDS011;52593;42.648;23.332;2023-01-05T06:28:42;36.05;;;12.98;;
65831;SDS011;52593;42.648;23.332;2023-01-05T06:31:08;39.43;;;13.43;;
65831;SDS011;52593;42.648;23.332;2023-01-05T06:33:33;40.10;;;13.80;;
65831;SDS011;52593;42.648;23.332;2023-01-05T06:35:59;38.07;;;13.80;;
65831;SDS011;52593;42.648;23.332;2023-01-05T06:38:24;36.57;;;13.57;;
65831;SDS011;52593;42.648;23.332;2023-01-05T06:40:50;35.90;;;13.75;;
65831;SDS011;52593;42.648;23.332;2023-01-05T06:43:16;38.33;;;13.93;;
65831;SDS011;52593;42.648;23.332;2023-01-05T06:45:41;36.47;;;13.77;;
65831;SDS011;52593;42.648;23.332;2023-01-05T06:48:08;35.80;;;13.25;;
65831;SDS011;52593;42.648;23.332;2023-01-05T06:50:33;38.10;;;13.13;;
65831;SDS011;52593;42.648;23.332;2023-01-05T06:52:58;33.30;;;12.23;;
65831;SDS011;52593;42.648;23.332;2023-01-05T06:55:24;33.65;;;13.15;;
65831;SDS011;52593;42.648;23.332;2023-01-05T06:57:49;34.97;;;12.80;;
65831;SDS011;52593;42.648;23.332;2023-01-05T07:00:15;37.40;;;13.30;;
65831;SDS011;52593;42.648;23.332;2023-01-05T07:02:41;32.95;;;12.82;;
65831;SDS011;52593;42.648;23.332;2023-01-05T07:05:07;31.80;;;12.75;;
65831;SDS011;52593;42.648;23.332;2023-01-05T07:07:33;35.90;;;13.13;;
65831;SDS011;52593;42.648;23.332;2023-01-05T07:09:59;43.75;;;15.95;;
65831;SDS011;52593;42.648;23.332;2023-01-05T07:12:24;42.90;;;16.40;;
65831;SDS011;52593;42.648;23.332;2023-01-05T07:14:50;41.22;;;17.48;;
65831;SDS011;52593;42.648;23.332;2023-01-05T07:17:15;43.80;;;16.73;;
65831;SDS011;52593;42.648;23.332;2023-01-05T07:19:41;48.33;;;16.67;;
65831;SDS011;52593;42.648;23.332;2023-01-05T07:22:06;40.67;;;15.98;;
65831;SDS011;52593;42.648;23.332;2023-01-05T07:24:32;39.37;;;15.90;;
65831;SDS011;52593;42.648;23.332;2023-01-05T07:26:58;39.83;;;15.27;;
65831;SDS011;52593;42.648;23.332;2023-01-05T07:29:23;39.72;;;14.88;;
65831;SDS011;52593;42.648;23.332;2023-01-05T07:31:49;41.05;;;15.15;;
65831;SDS011;52593;42.648;23.332;2023-01-05T07:34:16;37.37;;;14.87;;
65831;SDS011;52593;42.648;23.332;2023-01-05T07:36:42;38.35;;;15.18;;
65831;SDS011;52593;42.648;23.332;2023-01-05T07:39:08;40.53;;;14.93;;
65831;SDS011;52593;42.648;23.332;2023-01-05T07:41:33;39.97;;;15.32;;
65831;SDS011;52593;42.648;23.332;2023-01-05T07:43:58;43.37;;;15.47;;
65831;SDS011;52593;42.648;23.332;2023-01-05T07:46:24;38.47;;;14.63;;
65831;SDS011;52593;42.648;23.332;2023-01-05T07:48:49;37.23;;;14.43;;
65831;SDS011;52593;42.648;23.332;2023-01-05T07:51:15;39.17;;;14.70;;
65831;SDS011;52593;42.648;23.332;2023-01-05T07:53:40;39.78;;;14.38;;
65831;SDS011;52593;42.648;23.332;2023-01-05T07:56:06;38.23;;;14.13;;
65831;SDS011;52593;42.648;23.332;2023-01-05T07:58:32;37.55;;;13.65;;
65831;SDS011;52593;42.648;23.332;2023-01-05T08:01:04;33.90;;;14.10;;
65831;SDS011;52593;42.648;23.332;2023-01-05T08:03:31;35.33;;;13.47;;
65831;SDS011;52593;42.648;23.332;2023-01-05T08:05:57;34.38;;;13.88;;
65831;SDS011;52593;42.648;23.332;2023-01-05T08:08:22;40.87;;;13.83;;
65831;SDS011;52593;42.648;23.332;2023-01-05T08:10:48;34.50;;;14.33;;
65831;SDS011;52593;42.648;23.332;2023-01-05T08:13:13;36.63;;;14.15;;
65831;SDS011;52593;42.648;23.332;2023-01-05T08:15:57;37.03;;;13.27;;
65831;SDS011;52593;42.648;23.332;2023-01-05T08:18:24;31.95;;;13.57;;
65831;SDS011;52593;42.648;23.332;2023-01-05T08:20:53;36.35;;;13.63;;
65831;SDS011;52593;42.648;23.332;2023-01-05T08:23:20;36.28;;;14.55;;
65831;SDS011;52593;42.648;23.332;2023-01-05T08:25:46;40.08;;;14.80;;
65831;SDS011;52593;42.648;23.332;2023-01-05T08:28:12;38.70;;;15.20;;
65831;SDS011;52593;42.648;23.332;2023-01-05T08:30:38;48.03;;;16.87;;
65831;SDS011;52593;42.648;23.332;2023-01-05T08:33:03;42.40;;;15.93;;
65831;SDS011;52593;42.648;23.332;2023-01-05T08:35:29;38.20;;;15.33;;
65831;SDS011;52593;42.648;23.332;2023-01-05T08:37:54;41.72;;;16.00;;
65831;SDS011;52593;42.648;23.332;2023-01-05T08:40:20;42.57;;;17.67;;
65831;SDS011;52593;42.648;23.332;2023-01-05T08:42:45;47.03;;;16.80;;
65831;SDS011;52593;42.648;23.332;2023-01-05T08:45:12;44.35;;;17.55;;
65831;SDS011;52593;42.648;23.332;2023-01-05T08:47:39;43.53;;;16.63;;
65831;SDS011;52593;42.648;23.332;2023-01-05T08:50:05;39.40;;;14.83;;
65831;SDS011;52593;42.648;23.332;2023-01-05T08:52:31;36.40;;;14.02;;
65831;SDS011;52593;42.648;23.332;2023-01-05T08:54:56;37.60;;;14.20;;
65831;SDS011;52593;42.648;23.332;2023-01-05T08:57:22;32.50;;;13.23;;
65831;SDS011;52593;42.648;23.332;2023-01-05T08:59:47;34.23;;;14.07;;
65831;SDS011;52593;42.648;23.332;2023-01-05T09:02:12;37.23;;;13.80;;
65831;SDS011;52593;42.648;23.332;2023-01-05T09:04:39;38.50;;;14.73;;
65831;SDS011;52593;42.648;23.332;2023-01-05T09:07:04;40.20;;;18.80;;
65831;SDS011;52593;42.648;23.332;2023-01-05T09:09:30;41.03;;;15.93;;
65831;SDS011;52593;42.648;23.332;2023-01-05T09:11:55;31.83;;;12.50;;
65831;SDS011;52593;42.648;23.332;2023-01-05T09:14:20;33.93;;;13.50;;
65831;SDS011;52593;42.648;23.332;2023-01-05T09:16:46;37.10;;;14.57;;
65831;SDS011;52593;42.648;23.332;2023-01-05T09:19:11;49.43;;;18.07;;
65831;SDS011;52593;42.648;23.332;2023-01-05T09:21:37;38.73;;;16.70;;
65831;SDS011;52593;42.648;23.332;2023-01-05T09:24:05;40.20;;;16.02;;
65831;SDS011;52593;42.648;23.332;2023-01-05T09:26:31;44.63;;;17.67;;
65831;SDS011;52593;42.648;23.332;2023-01-05T09:28:57;39.90;;;16.10;;
65831;SDS011;52593;42.648;23.332;2023-01-05T09:31:22;40.97;;;17.17;;
65831;SDS011;52593;42.648;23.332;2023-01-05T09:33:48;40.10;;;17.27;;
65831;SDS011;52593;42.648;23.332;2023-01-05T09:36:14;45.20;;;18.97;;
65831;SDS011;52593;42.648;23.332;2023-01-05T09:38:41;44.25;;;18.38;;
65831;SDS011;52593;42.648;23.332;2023-01-05T09:41:12;40.03;;;16.47;;
65831;SDS011;52593;42.648;23.332;2023-01-05T09:43:44;40.72;;;17.90;;
65831;SDS011;52593;42.648;23.332;2023-01-05T09:46:22;41.08;;;16.38;;
65831;SDS011;52593;42.648;23.332;2023-01-05T09:48:52;41.67;;;16.17;;
65831;SDS011;52593;42.648;23.332;2023-01-05T09:51:21;37.88;;;14.68;;
65831;SDS011;52593;42.648;23.332;2023-01-05T09:53:47;33.90;;;13.60;;
65831;SDS011;52593;42.648;23.332;2023-01-05T09:56:55;30.48;;;12.52;;
65831;SDS011;52593;42.648;23.332;2023-01-05T09:59:05;27.20;;;11.60;;
65831;SDS011;52593;42.648;23.332;2023-01-05T10:01:36;25.95;;;10.50;;
65831;SDS011;52593;42.648;23.332;2023-01-05T10:04:09;22.85;;;10.15;;
65831;SDS011;52593;42.648;23.332;2023-01-05T10:06:41;23.80;;;10.52;;
65831;SDS011;52593;42.648;23.332;2023-01-05T10:09:11;26.55;;;11.48;;
65831;SDS011;52593;42.648;23.332;2023-01-05T10:14:37;26.73;;;10.55;;
65831;SDS011;52593;42.648;23.332;2023-01-05T10:17:22;26.60;;;10.68;;
65831;SDS011;52593;42.648;23.332;2023-01-05T10:19:47;26.87;;;10.70;;
65831;SDS011;52593;42.648;23.332;2023-01-05T10:24:49;26.75;;;10.82;;
65831;SDS011;52593;42.648;23.332;2023-01-05T10:30:13;27.97;;;11.47;;
65831;SDS011;52593;42.648;23.332;2023-01-05T10:44:20;26.73;;;11.50;;
65831;SDS011;52593;42.648;23.332;2023-01-05T10:46:55;28.65;;;11.65;;
65831;SDS011;52593;42.648;23.332;2023-01-05T10:49:23;26.25;;;11.13;;
65831;SDS011;52593;42.648;23.332;2023-01-05T10:51:52;29.73;;;12.47;;
65831;SDS011;52593;42.648;23.332;2023-01-05T10:55:10;29.88;;;12.15;;
65831;SDS011;52593;42.648;23.332;2023-01-05T10:59:52;25.58;;;11.32;;
65831;SDS011;52593;42.648;23.332;2023-01-05T11:02:26;28.05;;;11.85;;
65831;SDS011;52593;42.648;23.332;2023-01-05T11:04:54;27.53;;;11.73;;
65831;SDS011;52593;42.648;23.332;2023-01-05T11:07:31;30.25;;;11.82;;
65831;SDS011;52593;42.648;23.332;2023-01-05T11:09:56;30.60;;;11.43;;
65831;SDS011;52593;42.648;23.332;2023-01-05T11:12:22;26.93;;;11.73;;
65831;SDS011;52593;42.648;23.332;2023-01-05T11:14:55;26.20;;;11.40;;
65831;SDS011;52593;42.648;23.332;2023-01-05T11:17:22;28.70;;;11.82;;
65831;SDS011;52593;42.648;23.332;2023-01-05T11:19:52;29.83;;;11.90;;
65831;SDS011;52593;42.648;23.332;2023-01-05T11:28:08;27.70;;;11.32;;
65831;SDS011;52593;42.648;23.332;2023-01-05T11:30:43;24.65;;;10.85;;
65831;SDS011;52593;42.648;23.332;2023-01-05T11:33:26;25.17;;;10.70;;
65831;SDS011;52593;42.648;23.332;2023-01-05T11:35:53;24.58;;;10.50;;
65831;SDS011;52593;42.648;23.332;2023-01-05T11:38:21;26.17;;;10.82;;
65831;SDS011;52593;42.648;23.332;2023-01-05T11:40:49;24.13;;;10.38;;
65831;SDS011;52593;42.648;23.332;2023-01-05T11:43:16;24.38;;;10.43;;
65831;SDS011;52593;42.648;23.332;2023-01-05T11:45:48;27.57;;;11.13;;
65831;SDS011;52593;42.648;23.332;2023-01-05T11:48:22;23.10;;;10.45;;
65831;SDS011;52593;42.648;23.332;2023-01-05T11:50:52;24.88;;;10.45;;
65831;SDS011;52593;42.648;23.332;2023-01-05T11:53:22;32.85;;;11.32;;
65831;SDS011;52593;42.648;23.332;2023-01-05T11:56:04;27.25;;;11.35;;
65831;SDS011;52593;42.648;23.332;2023-01-05T11:58:42;26.13;;;11.27;;
65831;SDS011;52593;42.648;23.332;2023-01-05T12:11:52;21.67;;;9.70;;
65831;SDS011;52593;42.648;23.332;2023-01-05T12:14:36;22.08;;;9.77;;
65831;SDS011;52593;42.648;23.332;2023-01-05T12:17:13;25.27;;;11.43;;
65831;SDS011;52593;42.648;23.332;2023-01-05T12:38:34;22.63;;;9.57;;
65831;SDS011;52593;42.648;23.332;2023-01-05T12:41:17;23.67;;;9.07;;
65831;SDS011;52593;42.648;23.332;2023-01-05T12:49:28;20.25;;;9.18;;
65831;SDS011;52593;42.648;23.332;2023-01-05T12:52:21;24.53;;;9.40;;
65831;SDS011;52593;42.648;23.332;2023-01-05T12:57:45;23.08;;;10.18;;
65831;SDS011;52593;42.648;23.332;2023-01-05T13:00:14;21.52;;;8.73;;
65831;SDS011;52593;42.648;23.332;2023-01-05T13:02:47;26.88;;;10.32;;
65831;SDS011;52593;42.648;23.332;2023-01-05T13:05:40;21.67;;;9.33;;
65831;SDS011;52593;42.648;23.332;2023-01-05T13:10:52;23.00;;;9.98;;
65831;SDS011;52593;42.648;23.332;2023-01-05T13:14:32;21.25;;;9.27;;
65831;SDS011;52593;42.648;23.332;2023-01-05T13:16:44;21.60;;;9.02;;
65831;SDS011;52593;42.648;23.332;2023-01-05T13:19:22;21.87;;;9.20;;
65831;SDS011;52593;42.648;23.332;2023-01-05T13:21:52;21.73;;;9.60;;
65831;SDS011;52593;42.648;23.332;2023-01-05T13:24:23;20.63;;;8.82;;
65831;SDS011;52593;42.648;23.332;2023-01-05T13:26:55;21.48;;;9.13;;
65831;SDS011;52593;42.648;23.332;2023-01-05T13:29:25;22.10;;;9.10;;
65831;SDS011;52593;42.648;23.332;2023-01-05T13:40:50;19.25;;;9.20;;
65831;SDS011;52593;42.648;23.332;2023-01-05T13:54:55;29.63;;;10.50;;
65831;SDS011;52593;42.648;23.332;2023-01-05T13:57:26;28.02;;;11.15;;
65831;SDS011;52593;42.648;23.332;2023-01-05T14:00:01;24.40;;;10.03;;
65831;SDS011;52593;42.648;23.332;2023-01-05T14:02:36;26.00;;;10.75;;
65831;SDS011;52593;42.648;23.332;2023-01-05T14:05:14;22.52;;;9.77;;
65831;SDS011;52593;42.648;23.332;2023-01-05T14:07:47;24.73;;;9.50;;
65831;SDS011;52593;42.648;23.332;2023-01-05T14:10:19;33.30;;;15.05;;
65831;SDS011;52593;42.648;23.332;2023-01-05T14:12:48;23.60;;;10.30;;
65831;SDS011;52593;42.648;23.332;2023-01-05T14:25:53;25.93;;;11.03;;
65831;SDS011;52593;42.648;23.332;2023-01-05T14:33:52;28.98;;;11.45;;
65831;SDS011;52593;42.648;23.332;2023-01-05T14:36:25;29.38;;;13.13;;
65831;SDS011;52593;42.648;23.332;2023-01-05T14:38:53;35.87;;;13.43;;
65831;SDS011;52593;42.648;23.332;2023-01-05T14:41:20;32.95;;;12.95;;
65831;SDS011;52593;42.648;23.332;2023-01-05T14:44:05;34.30;;;11.23;;
65831;SDS011;52593;42.648;23.332;2023-01-05T14:46:52;30.67;;;11.88;;
65831;SDS011;52593;42.648;23.332;2023-01-05T14:52:04;33.15;;;12.98;;
65831;SDS011;52593;42.648;23.332;2023-01-05T15:00:00;34.35;;;12.70;;
65831;SDS011;52593;42.648;23.332;2023-01-05T15:02:40;34.65;;;13.27;;
65831;SDS011;52593;42.648;23.332;2023-01-05T15:05:12;31.30;;;12.25;;
65831;SDS011;52593;42.648;23.332;2023-01-05T15:16:15;31.30;;;12.57;;
65831;SDS011;52593;42.648;23.332;2023-01-05T15:19:01;31.63;;;12.52;;
65831;SDS011;52593;42.648;23.332;2023-01-05T15:21:47;39.88;;;15.65;;
65831;SDS011;52593;42.648;23.332;2023-01-05T15:32:47;47.35;;;21.83;;
65831;SDS011;52593;42.648;23.332;2023-01-05T15:35:18;41.75;;;18.20;;
65831;SDS011;52593;42.648;23.332;2023-01-05T15:37:48;39.20;;;14.97;;
65831;SDS011;52593;42.648;23.332;2023-01-05T15:42:48;25.80;;;11.43;;
65831;SDS011;52593;42.648;23.332;2023-01-05T15:45:33;36.38;;;14.95;;
65831;SDS011;52593;42.648;23.332;2023-01-05T15:48:04;31.05;;;13.30;;
65831;SDS011;52593;42.648;23.332;2023-01-05T15:50:47;32.90;;;13.20;;
65831;SDS011;52593;42.648;23.332;2023-01-05T15:53:22;45.38;;;15.30;;
65831;SDS011;52593;42.648;23.332;2023-01-05T15:55:56;46.85;;;17.15;;
65831;SDS011;52593;42.648;23.332;2023-01-05T15:58:23;38.80;;;14.75;;
65831;SDS011;52593;42.648;23.332;2023-01-05T16:01:07;44.47;;;16.75;;
65831;SDS011;52593;42.648;23.332;2023-01-05T16:06:32;42.08;;;15.80;;
65831;SDS011;52593;42.648;23.332;2023-01-05T16:09:06;35.22;;;14.38;;
65831;SDS011;52593;42.648;23.332;2023-01-05T16:11:40;40.55;;;14.68;;
65831;SDS011;52593;42.648;23.332;2023-01-05T16:14:24;38.42;;;14.60;;
65831;SDS011;52593;42.648;23.332;2023-01-05T16:17:10;29.80;;;12.20;;
65831;SDS011;52593;42.648;23.332;2023-01-05T16:19:42;28.42;;;10.48;;
65831;SDS011;52593;42.648;23.332;2023-01-05T16:22:17;27.90;;;10.68;;
65831;SDS011;52593;42.648;23.332;2023-01-05T16:27:18;26.73;;;11.20;;
65831;SDS011;52593;42.648;23.332;2023-01-05T16:29:45;30.03;;;11.53;;
65831;SDS011;52593;42.648;23.332;2023-01-05T16:37:44;33.10;;;12.30;;
65831;SDS011;52593;42.648;23.332;2023-01-05T16:40:19;32.13;;;13.20;;
65831;SDS011;52593;42.648;23.332;2023-01-05T16:42:46;32.85;;;14.15;;
65831;SDS011;52593;42.648;23.332;2023-01-05T16:45:18;39.58;;;13.48;;
65831;SDS011;52593;42.648;23.332;2023-01-05T16:47:46;38.22;;;13.90;;
65831;SDS011;52593;42.648;23.332;2023-01-05T16:57:46;37.40;;;14.20;;
65831;SDS011;52593;42.648;23.332;2023-01-05T17:02:50;34.20;;;14.05;;
65831;SDS011;52593;42.648;23.332;2023-01-05T17:05:20;36.67;;;13.10;;
65831;SDS011;52593;42.648;23.332;2023-01-05T17:07:48;35.13;;;14.75;;
65831;SDS011;52593;42.648;23.332;2023-01-05T17:10:19;39.97;;;14.90;;
65831;SDS011;52593;42.648;23.332;2023-01-05T17:13:36;43.95;;;15.63;;
65831;SDS011;52593;42.648;23.332;2023-01-05T17:15:41;38.72;;;16.10;;
65831;SDS011;52593;42.648;23.332;2023-01-05T17:18:21;40.37;;;15.80;;
65831;SDS011;52593;42.648;23.332;2023-01-05T17:20:49;40.00;;;15.98;;
65831;SDS011;52593;42.648;23.332;2023-01-05T17:23:20;48.70;;;16.70;;